sensor_id;sensor_type;location;lat;lon;timestamp;P1;durP1;ratioP1;P2;durP2;ratioP2
11675;SDS011;5894;42.768;23.404;2023-07-31T00:02:03;3.13;;;2.83;;
11675;SDS011;5894;42.768;23.404;2023-07-31T00:04:30;3.13;;;2.83;;
11675;SDS011;5894;42.768;23.404;2023-07-31T00:06:57;2.85;;;2.65;;
11675;SDS011;5894;42.768;23.404;2023-07-31T00:09:24;2.70;;;2.50;;
11675;SDS011;5894;42.768;23.404;2023-07-31T00:11:51;3.67;;;2.90;;
11675;SDS011;5894;42.768;23.404;2023-07-31T00:14:20;3.95;;;3.10;;
11675;SDS011;5894;42.768;23.404;2023-07-31T00:16:47;4.47;;;2.90;;
11675;SDS011;5894;42.768;23.404;2023-07-31T00:19:14;3.72;;;2.80;;
11675;SDS011;5894;42.768;23.404;2023-07-31T00:21:41;3.28;;;2.97;;
11675;SDS011;5894;42.768;23.404;2023-07-31T00:24:08;5.50;;;3.08;;
11675;SDS011;5894;42.768;23.404;2023-07-31T00:26:34;3.53;;;3.08;;
11675;SDS011;5894;42.768;23.404;2023-07-31T00:29:01;4.03;;;3.30;;
11675;SDS011;5894;42.768;23.404;2023-07-31T00:31:31;4.93;;;3.00;;
11675;SDS011;5894;42.768;23.404;2023-07-31T00:33:58;4.00;;;2.97;;
11675;SDS011;5894;42.768;23.404;2023-07-31T00:36:25;3.15;;;2.95;;
11675;SDS011;5894;42.768;23.404;2023-07-31T00:38:52;3.28;;;2.97;;
11675;SDS011;5894;42.768;23.404;2023-07-31T00:41:19;3.08;;;2.80;;
11675;SDS011;5894;42.768;23.404;2023-07-31T00:43:47;3.30;;;3.00;;
11675;SDS011;5894;42.768;23.404;2023-07-31T00:46:15;3.75;;;3.10;;
11675;SDS011;5894;42.768;23.404;2023-07-31T00:48:43;3.40;;;2.92;;
11675;SDS011;5894;42.768;23.404;2023-07-31T00:51:10;3.25;;;2.95;;
11675;SDS011;5894;42.768;23.404;2023-07-31T00:53:37;3.60;;;3.25;;
11675;SDS011;5894;42.768;23.404;2023-07-31T00:56:06;3.25;;;2.92;;
11675;SDS011;5894;42.768;23.404;2023-07-31T00:58:33;3.50;;;3.20;;
11675;SDS011;5894;42.768;23.404;2023-07-31T01:01:00;3.53;;;3.13;;
11675;SDS011;5894;42.768;23.404;2023-07-31T01:03:27;3.60;;;3.10;;
11675;SDS011;5894;42.768;23.404;2023-07-31T01:05:59;3.30;;;3.00;;
11675;SDS011;5894;42.768;23.404;2023-07-31T01:08:37;4.15;;;3.20;;
11675;SDS011;5894;42.768;23.404;2023-07-31T01:11:19;7.78;;;3.40;;
11675;SDS011;5894;42.768;23.404;2023-07-31T01:13:52;4.13;;;3.20;;
11675;SDS011;5894;42.768;23.404;2023-07-31T01:16:20;3.22;;;3.00;;
11675;SDS011;5894;42.768;23.404;2023-07-31T01:18:47;3.50;;;3.20;;
11675;SDS011;5894;42.768;23.404;2023-07-31T01:21:21;5.68;;;3.13;;
11675;SDS011;5894;42.768;23.404;2023-07-31T01:24:06;3.25;;;3.03;;
11675;SDS011;5894;42.768;23.404;2023-07-31T01:26:49;3.70;;;3.40;;
11675;SDS011;5894;42.768;23.404;2023-07-31T01:29:23;3.30;;;3.10;;
11675;SDS011;5894;42.768;23.404;2023-07-31T01:31:56;3.60;;;3.30;;
11675;SDS011;5894;42.768;23.404;2023-07-31T01:34:26;3.85;;;3.47;;
11675;SDS011;5894;42.768;23.404;2023-07-31T01:36:53;3.97;;;3.58;;
11675;SDS011;5894;42.768;23.404;2023-07-31T01:39:22;3.50;;;3.20;;
11675;SDS011;5894;42.768;23.404;2023-07-31T01:41:50;3.38;;;3.08;;
11675;SDS011;5894;42.768;23.404;2023-07-31T01:44:18;3.83;;;3.50;;
11675;SDS011;5894;42.768;23.404;2023-07-31T01:46:44;3.60;;;3.30;;
11675;SDS011;5894;42.768;23.404;2023-07-31T01:49:12;4.07;;;3.50;;
11675;SDS011;5894;42.768;23.404;2023-07-31T01:51:39;3.83;;;3.53;;
11675;SDS011;5894;42.768;23.404;2023-07-31T01:54:06;4.22;;;3.53;;
11675;SDS011;5894;42.768;23.404;2023-07-31T01:56:33;4.97;;;3.45;;
11675;SDS011;5894;42.768;23.404;2023-07-31T01:59:02;3.78;;;3.47;;
11675;SDS011;5894;42.768;23.404;2023-07-31T02:01:29;4.97;;;3.80;;
11675;SDS011;5894;42.768;23.404;2023-07-31T02:03:56;4.20;;;3.63;;
11675;SDS011;5894;42.768;23.404;2023-07-31T02:06:23;3.75;;;3.45;;
11675;SDS011;5894;42.768;23.404;2023-07-31T02:08:50;3.97;;;3.63;;
11675;SDS011;5894;42.768;23.404;2023-07-31T02:11:17;4.28;;;3.88;;
11675;SDS011;5894;42.768;23.404;2023-07-31T02:13:44;5.18;;;3.90;;
11675;SDS011;5894;42.768;23.404;2023-07-31T02:16:13;4.55;;;4.00;;
11675;SDS011;5894;42.768;23.404;2023-07-31T02:18:40;3.97;;;3.60;;
11675;SDS011;5894;42.768;23.404;2023-07-31T02:21:07;4.20;;;3.80;;
11675;SDS011;5894;42.768;23.404;2023-07-31T02:23:34;4.65;;;3.92;;
11675;SDS011;5894;42.768;23.404;2023-07-31T02:26:01;4.70;;;3.78;;
11675;SDS011;5894;42.768;23.404;2023-07-31T02:28:28;5.10;;;3.80;;
11675;SDS011;5894;42.768;23.404;2023-07-31T02:30:56;3.83;;;3.53;;
11675;SDS011;5894;42.768;23.404;2023-07-31T02:33:24;5.35;;;4.00;;
11675;SDS011;5894;42.768;23.404;2023-07-31T02:35:51;4.93;;;3.80;;
11675;SDS011;5894;42.768;23.404;2023-07-31T02:38:21;4.00;;;3.50;;
11675;SDS011;5894;42.768;23.404;2023-07-31T02:40:48;4.35;;;3.90;;
11675;SDS011;5894;42.768;23.404;2023-07-31T02:43:15;4.30;;;3.90;;
11675;SDS011;5894;42.768;23.404;2023-07-31T02:45:42;4.32;;;3.85;;
11675;SDS011;5894;42.768;23.404;2023-07-31T02:48:10;4.40;;;4.00;;
11675;SDS011;5894;42.768;23.404;2023-07-31T02:50:38;6.63;;;4.45;;
11675;SDS011;5894;42.768;23.404;2023-07-31T02:53:05;5.40;;;4.90;;
11675;SDS011;5894;42.768;23.404;2023-07-31T02:55:32;5.00;;;4.60;;
11675;SDS011;5894;42.768;23.404;2023-07-31T02:57:59;5.30;;;4.90;;
11675;SDS011;5894;42.768;23.404;2023-07-31T03:00:26;6.20;;;4.97;;
11675;SDS011;5894;42.768;23.404;2023-07-31T03:02:54;5.75;;;5.25;;
11675;SDS011;5894;42.768;23.404;2023-07-31T03:05:21;5.70;;;5.10;;
11675;SDS011;5894;42.768;23.404;2023-07-31T03:07:49;5.30;;;4.80;;
11675;SDS011;5894;42.768;23.404;2023-07-31T03:10:16;5.80;;;5.30;;
11675;SDS011;5894;42.768;23.404;2023-07-31T03:12:46;5.53;;;5.03;;
11675;SDS011;5894;42.768;23.404;2023-07-31T03:15:13;5.68;;;4.95;;
11675;SDS011;5894;42.768;23.404;2023-07-31T03:17:40;5.50;;;4.97;;
11675;SDS011;5894;42.768;23.404;2023-07-31T03:20:07;6.80;;;5.30;;
11675;SDS011;5894;42.768;23.404;2023-07-31T03:22:35;5.85;;;5.22;;
11675;SDS011;5894;42.768;23.404;2023-07-31T03:25:04;6.13;;;5.63;;
11675;SDS011;5894;42.768;23.404;2023-07-31T03:27:32;6.80;;;5.63;;
11675;SDS011;5894;42.768;23.404;2023-07-31T03:29:59;5.55;;;5.07;;
11675;SDS011;5894;42.768;23.404;2023-07-31T03:32:27;5.65;;;5.15;;
11675;SDS011;5894;42.768;23.404;2023-07-31T03:34:54;6.15;;;5.63;;
11675;SDS011;5894;42.768;23.404;2023-07-31T03:37:21;9.40;;;5.32;;
11675;SDS011;5894;42.768;23.404;2023-07-31T03:39:48;9.32;;;5.95;;
11675;SDS011;5894;42.768;23.404;2023-07-31T03:42:17;5.80;;;5.30;;
11675;SDS011;5894;42.768;23.404;2023-07-31T03:44:44;5.82;;;5.25;;
11675;SDS011;5894;42.768;23.404;2023-07-31T03:47:11;7.72;;;5.63;;
11675;SDS011;5894;42.768;23.404;2023-07-31T03:49:38;6.47;;;5.95;;
11675;SDS011;5894;42.768;23.404;2023-07-31T03:52:05;6.03;;;5.43;;
11675;SDS011;5894;42.768;23.404;2023-07-31T03:54:33;8.98;;;6.10;;
11675;SDS011;5894;42.768;23.404;2023-07-31T03:57:00;7.32;;;6.63;;
11675;SDS011;5894;42.768;23.404;2023-07-31T03:59:28;6.88;;;6.28;;
11675;SDS011;5894;42.768;23.404;2023-07-31T04:01:55;7.47;;;6.80;;
11675;SDS011;5894;42.768;23.404;2023-07-31T04:04:22;8.60;;;7.80;;
11675;SDS011;5894;42.768;23.404;2023-07-31T04:06:49;8.88;;;8.07;;
11675;SDS011;5894;42.768;23.404;2023-07-31T04:09:16;8.82;;;8.05;;
11675;SDS011;5894;42.768;23.404;2023-07-31T04:11:43;11.93;;;8.55;;
11675;SDS011;5894;42.768;23.404;2023-07-31T04:14:10;9.15;;;8.35;;
11675;SDS011;5894;42.768;23.404;2023-07-31T04:16:39;9.27;;;8.38;;
11675;SDS011;5894;42.768;23.404;2023-07-31T04:19:06;9.15;;;8.20;;
11675;SDS011;5894;42.768;23.404;2023-07-31T04:21:33;8.75;;;7.95;;
11675;SDS011;5894;42.768;23.404;2023-07-31T04:24:00;8.00;;;7.30;;
11675;SDS011;5894;42.768;23.404;2023-07-31T04:26:27;7.97;;;7.25;;
11675;SDS011;5894;42.768;23.404;2023-07-31T04:28:54;7.25;;;6.55;;
11675;SDS011;5894;42.768;23.404;2023-07-31T04:31:21;7.22;;;6.50;;
11675;SDS011;5894;42.768;23.404;2023-07-31T04:33:49;7.35;;;6.65;;
11675;SDS011;5894;42.768;23.404;2023-07-31T04:36:16;8.30;;;7.50;;
11675;SDS011;5894;42.768;23.404;2023-07-31T04:38:43;9.05;;;8.15;;
11675;SDS011;5894;42.768;23.404;2023-07-31T04:41:10;9.25;;;8.43;;
11675;SDS011;5894;42.768;23.404;2023-07-31T04:43:37;12.15;;;9.02;;
11675;SDS011;5894;42.768;23.404;2023-07-31T04:46:05;12.38;;;10.73;;
11675;SDS011;5894;42.768;23.404;2023-07-31T04:48:32;15.18;;;13.25;;
11675;SDS011;5894;42.768;23.404;2023-07-31T04:51:00;15.55;;;13.95;;
11675;SDS011;5894;42.768;23.404;2023-07-31T04:53:27;18.92;;;16.95;;
11675;SDS011;5894;42.768;23.404;2023-07-31T04:55:54;17.50;;;15.80;;
11675;SDS011;5894;42.768;23.404;2023-07-31T04:58:21;19.10;;;17.10;;
11675;SDS011;5894;42.768;23.404;2023-07-31T05:00:48;19.38;;;17.38;;
11675;SDS011;5894;42.768;23.404;2023-07-31T05:03:15;19.63;;;17.83;;
11675;SDS011;5894;42.768;23.404;2023-07-31T05:05:42;19.42;;;17.33;;
11675;SDS011;5894;42.768;23.404;2023-07-31T05:08:10;19.63;;;17.63;;
11675;SDS011;5894;42.768;23.404;2023-07-31T05:10:38;19.92;;;17.83;;
11675;SDS011;5894;42.768;23.404;2023-07-31T05:13:05;20.77;;;18.45;;
11675;SDS011;5894;42.768;23.404;2023-07-31T05:15:32;20.48;;;18.50;;
11675;SDS011;5894;42.768;23.404;2023-07-31T05:17:59;21.17;;;18.98;;
11675;SDS011;5894;42.768;23.404;2023-07-31T05:20:25;21.10;;;19.00;;
11675;SDS011;5894;42.768;23.404;2023-07-31T05:22:53;21.35;;;17.77;;
11675;SDS011;5894;42.768;23.404;2023-07-31T05:25:22;18.88;;;16.98;;
11675;SDS011;5894;42.768;23.404;2023-07-31T05:27:49;19.55;;;17.52;;
11675;SDS011;5894;42.768;23.404;2023-07-31T05:30:16;18.52;;;16.73;;
11675;SDS011;5894;42.768;23.404;2023-07-31T05:32:43;18.52;;;16.73;;
11675;SDS011;5894;42.768;23.404;2023-07-31T05:35:11;18.60;;;16.88;;
11675;SDS011;5894;42.768;23.404;2023-07-31T05:37:37;18.08;;;16.17;;
11675;SDS011;5894;42.768;23.404;2023-07-31T05:40:05;17.45;;;15.65;;
11675;SDS011;5894;42.768;23.404;2023-07-31T05:42:35;16.38;;;14.35;;
11675;SDS011;5894;42.768;23.404;2023-07-31T05:45:04;16.45;;;14.75;;
11675;SDS011;5894;42.768;23.404;2023-07-31T05:47:32;16.20;;;14.60;;
11675;SDS011;5894;42.768;23.404;2023-07-31T05:49:59;15.43;;;13.95;;
11675;SDS011;5894;42.768;23.404;2023-07-31T05:52:26;14.65;;;12.95;;
11675;SDS011;5894;42.768;23.404;2023-07-31T05:54:54;25.17;;;13.18;;
11675;SDS011;5894;42.768;23.404;2023-07-31T05:57:21;12.95;;;11.60;;
11675;SDS011;5894;42.768;23.404;2023-07-31T05:59:49;11.80;;;10.80;;
11675;SDS011;5894;42.768;23.404;2023-07-31T06:02:18;13.10;;;11.75;;
11675;SDS011;5894;42.768;23.404;2023-07-31T06:04:46;13.63;;;11.00;;
11675;SDS011;5894;42.768;23.404;2023-07-31T06:07:13;11.45;;;10.45;;
11675;SDS011;5894;42.768;23.404;2023-07-31T06:09:40;12.82;;;11.52;;
11675;SDS011;5894;42.768;23.404;2023-07-31T06:12:07;13.20;;;9.55;;
11675;SDS011;5894;42.768;23.404;2023-07-31T06:14:34;14.00;;;9.40;;
11675;SDS011;5894;42.768;23.404;2023-07-31T06:17:03;10.15;;;9.25;;
11675;SDS011;5894;42.768;23.404;2023-07-31T06:19:31;10.25;;;9.30;;
11675;SDS011;5894;42.768;23.404;2023-07-31T06:21:58;9.77;;;8.88;;
11675;SDS011;5894;42.768;23.404;2023-07-31T06:24:25;9.52;;;8.63;;
11675;SDS011;5894;42.768;23.404;2023-07-31T06:26:53;9.30;;;8.18;;
11675;SDS011;5894;42.768;23.404;2023-07-31T06:29:20;8.48;;;7.70;;
11675;SDS011;5894;42.768;23.404;2023-07-31T06:31:47;9.32;;;7.68;;
11675;SDS011;5894;42.768;23.404;2023-07-31T06:34:15;8.30;;;7.45;;
11675;SDS011;5894;42.768;23.404;2023-07-31T06:36:42;7.68;;;6.97;;
11675;SDS011;5894;42.768;23.404;2023-07-31T06:39:09;7.45;;;6.75;;
11675;SDS011;5894;42.768;23.404;2023-07-31T06:41:37;8.55;;;7.68;;
11675;SDS011;5894;42.768;23.404;2023-07-31T06:44:08;7.25;;;6.55;;
11675;SDS011;5894;42.768;23.404;2023-07-31T06:46:35;6.82;;;6.22;;
11675;SDS011;5894;42.768;23.404;2023-07-31T06:49:02;8.20;;;6.60;;
11675;SDS011;5894;42.768;23.404;2023-07-31T06:51:31;8.63;;;6.40;;
11675;SDS011;5894;42.768;23.404;2023-07-31T06:53:58;6.55;;;5.90;;
11675;SDS011;5894;42.768;23.404;2023-07-31T06:56:25;6.72;;;6.07;;
11675;SDS011;5894;42.768;23.404;2023-07-31T06:58:52;7.65;;;5.72;;
11675;SDS011;5894;42.768;23.404;2023-07-31T07:01:19;8.40;;;5.85;;
11675;SDS011;5894;42.768;23.404;2023-07-31T07:03:46;6.57;;;5.70;;
11675;SDS011;5894;42.768;23.404;2023-07-31T07:06:15;6.03;;;5.43;;
11675;SDS011;5894;42.768;23.404;2023-07-31T07:08:44;6.40;;;5.90;;
11675;SDS011;5894;42.768;23.404;2023-07-31T07:11:11;6.72;;;6.13;;
11675;SDS011;5894;42.768;23.404;2023-07-31T07:13:38;7.13;;;6.50;;
11675;SDS011;5894;42.768;23.404;2023-07-31T07:16:05;8.52;;;6.57;;
11675;SDS011;5894;42.768;23.404;2023-07-31T07:18:33;7.20;;;6.60;;
11675;SDS011;5894;42.768;23.404;2023-07-31T07:21:00;6.93;;;6.18;;
11675;SDS011;5894;42.768;23.404;2023-07-31T07:23:27;11.23;;;6.13;;
11675;SDS011;5894;42.768;23.404;2023-07-31T07:25:56;8.75;;;6.90;;
11675;SDS011;5894;42.768;23.404;2023-07-31T07:28:23;6.93;;;5.25;;
11675;SDS011;5894;42.768;23.404;2023-07-31T07:30:50;5.78;;;5.28;;
11675;SDS011;5894;42.768;23.404;2023-07-31T07:33:19;5.22;;;4.82;;
11675;SDS011;5894;42.768;23.404;2023-07-31T07:35:46;6.30;;;5.70;;
11675;SDS011;5894;42.768;23.404;2023-07-31T07:38:13;5.15;;;4.65;;
11675;SDS011;5894;42.768;23.404;2023-07-31T07:40:41;5.43;;;4.93;;
11675;SDS011;5894;42.768;23.404;2023-07-31T07:43:10;5.15;;;4.47;;
11675;SDS011;5894;42.768;23.404;2023-07-31T07:45:36;6.13;;;5.22;;
11675;SDS011;5894;42.768;23.404;2023-07-31T07:48:04;5.43;;;4.85;;
11675;SDS011;5894;42.768;23.404;2023-07-31T07:50:31;5.80;;;5.05;;
11675;SDS011;5894;42.768;23.404;2023-07-31T07:52:58;5.75;;;5.15;;
11675;SDS011;5894;42.768;23.404;2023-07-31T07:55:26;4.43;;;4.03;;
11675;SDS011;5894;42.768;23.404;2023-07-31T07:57:53;4.90;;;4.38;;
11675;SDS011;5894;42.768;23.404;2023-07-31T08:00:23;5.70;;;4.50;;
11675;SDS011;5894;42.768;23.404;2023-07-31T08:02:50;4.97;;;4.50;;
11675;SDS011;5894;42.768;23.404;2023-07-31T08:05:17;5.13;;;4.25;;
11675;SDS011;5894;42.768;23.404;2023-07-31T08:07:44;4.60;;;4.20;;
11675;SDS011;5894;42.768;23.404;2023-07-31T08:10:11;6.68;;;4.50;;
11675;SDS011;5894;42.768;23.404;2023-07-31T08:12:37;6.30;;;4.85;;
11675;SDS011;5894;42.768;23.404;2023-07-31T08:15:05;5.53;;;4.50;;
11675;SDS011;5894;42.768;23.404;2023-07-31T08:17:34;4.45;;;4.00;;
11675;SDS011;5894;42.768;23.404;2023-07-31T08:20:01;5.20;;;3.80;;
11675;SDS011;5894;42.768;23.404;2023-07-31T08:22:28;4.00;;;3.70;;
11675;SDS011;5894;42.768;23.404;2023-07-31T08:24:55;3.90;;;3.60;;
11675;SDS011;5894;42.768;23.404;2023-07-31T08:27:22;5.07;;;4.40;;
11675;SDS011;5894;42.768;23.404;2023-07-31T08:29:49;4.65;;;3.80;;
11675;SDS011;5894;42.768;23.404;2023-07-31T08:32:18;4.50;;;4.10;;
11675;SDS011;5894;42.768;23.404;2023-07-31T08:34:46;6.60;;;5.05;;
11675;SDS011;5894;42.768;23.404;2023-07-31T08:37:14;4.45;;;4.05;;
11675;SDS011;5894;42.768;23.404;2023-07-31T08:39:41;4.68;;;3.55;;
11675;SDS011;5894;42.768;23.404;2023-07-31T08:42:08;4.57;;;3.13;;
11675;SDS011;5894;42.768;23.404;2023-07-31T08:44:35;3.85;;;3.20;;
11675;SDS011;5894;42.768;23.404;2023-07-31T08:47:04;4.57;;;3.78;;
11675;SDS011;5894;42.768;23.404;2023-07-31T08:49:31;5.07;;;3.80;;
11675;SDS011;5894;42.768;23.404;2023-07-31T08:52:01;3.85;;;3.47;;
11675;SDS011;5894;42.768;23.404;2023-07-31T08:54:29;5.38;;;3.50;;
11675;SDS011;5894;42.768;23.404;2023-07-31T08:56:58;3.20;;;2.90;;
11675;SDS011;5894;42.768;23.404;2023-07-31T08:59:26;2.92;;;2.70;;
11675;SDS011;5894;42.768;23.404;2023-07-31T09:01:57;3.40;;;3.05;;
11675;SDS011;5894;42.768;23.404;2023-07-31T09:04:29;3.05;;;2.85;;
11675;SDS011;5894;42.768;23.404;2023-07-31T09:06:59;3.45;;;3.08;;
11675;SDS011;5894;42.768;23.404;2023-07-31T09:09:29;4.60;;;3.20;;
11675;SDS011;5894;42.768;23.404;2023-07-31T09:11:57;4.07;;;3.35;;
11675;SDS011;5894;42.768;23.404;2023-07-31T09:14:24;4.22;;;3.17;;
11675;SDS011;5894;42.768;23.404;2023-07-31T09:16:53;3.40;;;3.10;;
11675;SDS011;5894;42.768;23.404;2023-07-31T09:19:27;3.58;;;3.28;;
11675;SDS011;5894;42.768;23.404;2023-07-31T09:21:55;3.33;;;3.03;;
11675;SDS011;5894;42.768;23.404;2023-07-31T09:24:27;3.38;;;3.17;;
11675;SDS011;5894;42.768;23.404;2023-07-31T09:26:55;3.40;;;3.10;;
11675;SDS011;5894;42.768;23.404;2023-07-31T09:29:24;3.17;;;2.88;;
11675;SDS011;5894;42.768;23.404;2023-07-31T09:31:52;3.63;;;3.10;;
11675;SDS011;5894;42.768;23.404;2023-07-31T09:34:19;3.78;;;3.05;;
11675;SDS011;5894;42.768;23.404;2023-07-31T09:36:47;4.03;;;2.97;;
11675;SDS011;5894;42.768;23.404;2023-07-31T09:39:16;3.67;;;3.05;;
11675;SDS011;5894;42.768;23.404;2023-07-31T09:41:47;3.67;;;2.88;;
11675;SDS011;5894;42.768;23.404;2023-07-31T09:44:19;3.33;;;3.03;;
11675;SDS011;5894;42.768;23.404;2023-07-31T09:46:46;3.50;;;2.90;;
11675;SDS011;5894;42.768;23.404;2023-07-31T09:49:14;4.15;;;2.83;;
11675;SDS011;5894;42.768;23.404;2023-07-31T09:51:42;5.13;;;3.10;;
11675;SDS011;5894;42.768;23.404;2023-07-31T09:54:09;4.45;;;2.80;;
11675;SDS011;5894;42.768;23.404;2023-07-31T09:56:40;3.33;;;3.03;;
11675;SDS011;5894;42.768;23.404;2023-07-31T09:59:11;5.75;;;2.63;;
11675;SDS011;5894;42.768;23.404;2023-07-31T10:01:40;2.65;;;2.45;;
11675;SDS011;5894;42.768;23.404;2023-07-31T10:04:08;2.55;;;2.35;;
11675;SDS011;5894;42.768;23.404;2023-07-31T10:06:36;2.95;;;2.10;;
11675;SDS011;5894;42.768;23.404;2023-07-31T10:09:05;2.60;;;2.40;;
11675;SDS011;5894;42.768;23.404;2023-07-31T10:11:34;4.63;;;2.33;;
11675;SDS011;5894;42.768;23.404;2023-07-31T10:14:04;5.90;;;2.63;;
11675;SDS011;5894;42.768;23.404;2023-07-31T10:16:37;2.60;;;2.40;;
11675;SDS011;5894;42.768;23.404;2023-07-31T10:19:05;2.78;;;2.20;;
11675;SDS011;5894;42.768;23.404;2023-07-31T10:21:34;3.05;;;2.28;;
11675;SDS011;5894;42.768;23.404;2023-07-31T10:24:03;2.92;;;2.03;;
11675;SDS011;5894;42.768;23.404;2023-07-31T10:26:31;3.13;;;2.03;;
11675;SDS011;5894;42.768;23.404;2023-07-31T10:28:59;5.72;;;2.40;;
11675;SDS011;5894;42.768;23.404;2023-07-31T10:31:26;3.05;;;2.38;;
11675;SDS011;5894;42.768;23.404;2023-07-31T10:33:56;4.85;;;2.40;;
11675;SDS011;5894;42.768;23.404;2023-07-31T10:36:25;3.25;;;2.40;;
11675;SDS011;5894;42.768;23.404;2023-07-31T10:38:52;2.67;;;2.47;;
11675;SDS011;5894;42.768;23.404;2023-07-31T10:41:20;3.03;;;2.72;;
11675;SDS011;5894;42.768;23.404;2023-07-31T10:43:56;5.15;;;2.30;;
11675;SDS011;5894;42.768;23.404;2023-07-31T10:46:24;2.90;;;2.10;;
11675;SDS011;5894;42.768;23.404;2023-07-31T10:48:58;2.10;;;1.88;;
11675;SDS011;5894;42.768;23.404;2023-07-31T10:51:32;2.58;;;2.38;;
11675;SDS011;5894;42.768;23.404;2023-07-31T10:54:10;3.92;;;3.17;;
11675;SDS011;5894;42.768;23.404;2023-07-31T10:56:38;3.05;;;2.70;;
11675;SDS011;5894;42.768;23.404;2023-07-31T10:59:05;2.78;;;2.53;;
11675;SDS011;5894;42.768;23.404;2023-07-31T11:01:51;2.97;;;2.28;;
11675;SDS011;5894;42.768;23.404;2023-07-31T11:04:23;3.08;;;2.22;;
11675;SDS011;5894;42.768;23.404;2023-07-31T11:06:55;2.58;;;2.38;;
11675;SDS011;5894;42.768;23.404;2023-07-31T11:09:24;2.47;;;2.28;;
11675;SDS011;5894;42.768;23.404;2023-07-31T11:11:53;2.40;;;2.20;;
11675;SDS011;5894;42.768;23.404;2023-07-31T11:14:21;2.33;;;2.13;;
11675;SDS011;5894;42.768;23.404;2023-07-31T11:16:49;2.20;;;2.00;;
11675;SDS011;5894;42.768;23.404;2023-07-31T11:19:22;3.25;;;2.20;;
11675;SDS011;5894;42.768;23.404;2023-07-31T11:21:50;2.38;;;2.17;;
11675;SDS011;5894;42.768;23.404;2023-07-31T11:24:18;2.75;;;2.00;;
11675;SDS011;5894;42.768;23.404;2023-07-31T11:26:49;3.97;;;3.67;;
11675;SDS011;5894;42.768;23.404;2023-07-31T11:29:17;3.10;;;2.80;;
11675;SDS011;5894;42.768;23.404;2023-07-31T11:31:46;2.40;;;2.20;;
11675;SDS011;5894;42.768;23.404;2023-07-31T11:34:14;3.88;;;2.50;;
11675;SDS011;5894;42.768;23.404;2023-07-31T11:36:53;2.88;;;2.55;;
11675;SDS011;5894;42.768;23.404;2023-07-31T11:39:21;2.60;;;2.40;;
11675;SDS011;5894;42.768;23.404;2023-07-31T11:41:48;11.55;;;8.10;;
11675;SDS011;5894;42.768;23.404;2023-07-31T11:44:15;2.90;;;2.70;;
11675;SDS011;5894;42.768;23.404;2023-07-31T11:46:42;3.72;;;2.55;;
11675;SDS011;5894;42.768;23.404;2023-07-31T11:49:09;3.47;;;2.30;;
11675;SDS011;5894;42.768;23.404;2023-07-31T11:51:36;4.57;;;2.53;;
11675;SDS011;5894;42.768;23.404;2023-07-31T11:54:05;2.15;;;1.98;;
11675;SDS011;5894;42.768;23.404;2023-07-31T11:56:32;3.42;;;2.00;;
11675;SDS011;5894;42.768;23.404;2023-07-31T11:59:00;3.90;;;2.35;;
11675;SDS011;5894;42.768;23.404;2023-07-31T12:01:30;2.72;;;2.15;;
11675;SDS011;5894;42.768;23.404;2023-07-31T12:03:58;2.75;;;2.50;;
11675;SDS011;5894;42.768;23.404;2023-07-31T12:06:32;2.70;;;2.38;;
11675;SDS011;5894;42.768;23.404;2023-07-31T12:09:00;2.78;;;2.30;;
11675;SDS011;5894;42.768;23.404;2023-07-31T12:11:30;2.97;;;2.70;;
11675;SDS011;5894;42.768;23.404;2023-07-31T12:13:57;9.32;;;3.30;;
11675;SDS011;5894;42.768;23.404;2023-07-31T12:16:25;2.58;;;2.20;;
11675;SDS011;5894;42.768;23.404;2023-07-31T12:18:53;3.58;;;3.28;;
11675;SDS011;5894;42.768;23.404;2023-07-31T12:21:20;4.25;;;3.80;;
11675;SDS011;5894;42.768;23.404;2023-07-31T12:23:47;5.97;;;4.90;;
11675;SDS011;5894;42.768;23.404;2023-07-31T12:26:15;5.03;;;4.63;;
11675;SDS011;5894;42.768;23.404;2023-07-31T12:28:45;5.63;;;5.22;;
11675;SDS011;5894;42.768;23.404;2023-07-31T12:31:13;5.43;;;4.78;;
11675;SDS011;5894;42.768;23.404;2023-07-31T12:33:42;4.00;;;3.63;;
11675;SDS011;5894;42.768;23.404;2023-07-31T12:36:10;2.90;;;2.60;;
11675;SDS011;5894;42.768;23.404;2023-07-31T12:38:38;3.13;;;2.63;;
11675;SDS011;5894;42.768;23.404;2023-07-31T12:41:05;6.80;;;2.72;;
11675;SDS011;5894;42.768;23.404;2023-07-31T12:43:32;3.22;;;2.28;;
11675;SDS011;5894;42.768;23.404;2023-07-31T12:46:01;3.50;;;2.08;;
11675;SDS011;5894;42.768;23.404;2023-07-31T12:48:28;2.53;;;2.33;;
11675;SDS011;5894;42.768;23.404;2023-07-31T12:50:55;2.85;;;1.95;;
11675;SDS011;5894;42.768;23.404;2023-07-31T12:53:22;2.25;;;2.00;;
11675;SDS011;5894;42.768;23.404;2023-07-31T12:55:49;2.42;;;2.20;;
11675;SDS011;5894;42.768;23.404;2023-07-31T12:58:16;2.78;;;2.10;;
11675;SDS011;5894;42.768;23.404;2023-07-31T13:00:43;2.53;;;2.10;;
11675;SDS011;5894;42.768;23.404;2023-07-31T13:03:11;3.40;;;2.20;;
11675;SDS011;5894;42.768;23.404;2023-07-31T13:05:38;3.75;;;3.17;;
11675;SDS011;5894;42.768;23.404;2023-07-31T13:08:05;3.38;;;3.08;;
11675;SDS011;5894;42.768;23.404;2023-07-31T13:10:32;3.50;;;2.40;;
11675;SDS011;5894;42.768;23.404;2023-07-31T13:12:59;2.60;;;2.40;;
11675;SDS011;5894;42.768;23.404;2023-07-31T13:15:26;4.13;;;2.58;;
11675;SDS011;5894;42.768;23.404;2023-07-31T13:17:53;4.78;;;3.20;;
11675;SDS011;5894;42.768;23.404;2023-07-31T13:20:22;3.75;;;3.40;;
11675;SDS011;5894;42.768;23.404;2023-07-31T13:22:49;4.35;;;3.70;;
11675;SDS011;5894;42.768;23.404;2023-07-31T13:25:16;4.28;;;3.90;;
11675;SDS011;5894;42.768;23.404;2023-07-31T13:27:43;4.78;;;3.47;;
11675;SDS011;5894;42.768;23.404;2023-07-31T13:30:10;4.60;;;3.67;;
11675;SDS011;5894;42.768;23.404;2023-07-31T13:32:37;4.05;;;3.75;;
11675;SDS011;5894;42.768;23.404;2023-07-31T13:35:04;3.80;;;3.30;;
11675;SDS011;5894;42.768;23.404;2023-07-31T13:37:32;4.18;;;3.78;;
11675;SDS011;5894;42.768;23.404;2023-07-31T13:40:00;5.18;;;3.63;;
11675;SDS011;5894;42.768;23.404;2023-07-31T13:42:27;4.10;;;3.78;;
11675;SDS011;5894;42.768;23.404;2023-07-31T13:44:56;3.90;;;3.60;;
11675;SDS011;5894;42.768;23.404;2023-07-31T13:47:23;3.95;;;3.65;;
11675;SDS011;5894;42.768;23.404;2023-07-31T13:49:50;3.65;;;3.33;;
11675;SDS011;5894;42.768;23.404;2023-07-31T13:52:17;4.40;;;4.00;;
11675;SDS011;5894;42.768;23.404;2023-07-31T13:54:45;4.28;;;3.88;;
11675;SDS011;5894;42.768;23.404;2023-07-31T13:57:12;4.35;;;4.00;;
11675;SDS011;5894;42.768;23.404;2023-07-31T13:59:39;4.38;;;3.92;;
11675;SDS011;5894;42.768;23.404;2023-07-31T14:02:06;4.18;;;3.88;;
11675;SDS011;5894;42.768;23.404;2023-07-31T14:04:33;4.20;;;3.80;;
11675;SDS011;5894;42.768;23.404;2023-07-31T14:07:00;3.90;;;3.60;;
11675;SDS011;5894;42.768;23.404;2023-07-31T14:09:28;4.30;;;3.90;;
11675;SDS011;5894;42.768;23.404;2023-07-31T14:11:57;4.15;;;3.75;;
11675;SDS011;5894;42.768;23.404;2023-07-31T14:14:24;3.85;;;3.55;;
11675;SDS011;5894;42.768;23.404;2023-07-31T14:16:51;4.03;;;3.72;;
11675;SDS011;5894;42.768;23.404;2023-07-31T14:19:18;3.88;;;3.47;;
11675;SDS011;5894;42.768;23.404;2023-07-31T14:21:45;4.07;;;3.78;;
11675;SDS011;5894;42.768;23.404;2023-07-31T14:24:12;4.03;;;3.60;;
11675;SDS011;5894;42.768;23.404;2023-07-31T14:26:39;11.40;;;4.00;;
11675;SDS011;5894;42.768;23.404;2023-07-31T14:29:08;4.18;;;3.78;;
11675;SDS011;5894;42.768;23.404;2023-07-31T14:31:35;3.17;;;2.95;;
11675;SDS011;5894;42.768;23.404;2023-07-31T14:34:02;3.63;;;3.33;;
11675;SDS011;5894;42.768;23.404;2023-07-31T14:36:29;3.80;;;3.50;;
11675;SDS011;5894;42.768;23.404;2023-07-31T14:38:56;5.07;;;3.50;;
11675;SDS011;5894;42.768;23.404;2023-07-31T14:41:23;4.88;;;4.38;;
11675;SDS011;5894;42.768;23.404;2023-07-31T14:43:50;4.30;;;3.53;;
11675;SDS011;5894;42.768;23.404;2023-07-31T14:46:18;3.83;;;3.50;;
11675;SDS011;5894;42.768;23.404;2023-07-31T14:48:45;3.50;;;3.20;;
11675;SDS011;5894;42.768;23.404;2023-07-31T14:51:12;3.60;;;3.10;;